Terminal Aerodrome Forecast
Issued by NWS

Home | Current Version | Previous Version | Text Only | Print | Product List | Glossary On
Versions: 1 2 3 4 5 6 7 8 9 10 11 12 13 14 15 16 17
000
FTUS41 KBTV 281732
TAFMPV
TAF
KMPV 281732Z 2818/2918 18013KT P6SM VCSH SCT010 OVC035
      TEMPO 2820/2821 2SM -SHRA BR BKN015
     FM282100 VRB05KT P6SM VCSH OVC010
     FM290400 VRB03KT 4SM BR OVC015
     FM291300 33006KT P6SM BKN035
     FM291500 33009G15KT P6SM BKN035=

USA.gov is the U.S. government's official web portal to all federal, state and local government web resources and services.